METAR / TAF

Die METAR- und TAF-Liste ist aus technischen Gründen (Verfügbarkeit, Update-Zyklen) nicht für ein Meteo-Briefing gedacht. Benutzen Sie stattdessen skybriefing der Skyguide  oder das TAMSI (MeteoSchweiz-eigene Meteo Selfbriefing-Plattform für Firmen aus der Aviatik; Anfragen über das

Kontaktformular

METAR Schweiz

METAR     LSZH 192320Z 29005KT CAVOK 15/13 Q1023 NOSIG=
METAR     LSZH 192350Z 31003KT 290V360 CAVOK 15/13 Q1023 NOSIG=
METAR     LSGG 192320Z AUTO VRB02KT CAVOK 18/14 Q1022 NOSIG=
METAR     LSGG 192350Z AUTO VRB02KT CAVOK 17/14 Q1022 NOSIG=
METAR     LFSB 192330Z AUTO 32005KT CAVOK 18/17 Q1023 NOSIG=
METAR     LSZB 192320Z AUTO VRB01KT CAVOK 13/13 Q1023=
METAR     LSZB 192350Z AUTO 09002KT CAVOK 13/12 Q1023=
METAR     LSZA 192320Z AUTO 01003KT 9999 FEW050 SCT070 BKN090 22/18
               Q1022=
METAR     LSZA 192350Z AUTO 35003KT 9999 OVC050 22/18 Q1022=
METAR     LSZG 192320Z AUTO 23002KT CAVOK 16/14 Q1022=
METAR     LSZG 192350Z AUTO 21001KT 9000 NCD 15/13 Q1022=
METAR     LSZR 192320Z AUTO VRB01KT CAVOK 16/13 Q1023=
METAR     LSZR 192350Z AUTO 11005KT CAVOK 17/14 Q1023=
METAR     LSGS 192320Z AUTO VRB03KT CAVOK 21/13 Q1022=
METAR     LSGS 192350Z AUTO 00000KT CAVOK 20/14 Q1022=
METAR     LSGC 192320Z AUTO 07001KT CAVOK 13/11 Q1025=
METAR     LSGC 192350Z AUTO 04002KT CAVOK 13/12 Q1025=
METAR     LSZC 192320Z AUTO 27003KT CAVOK 18/14 Q1023=
METAR     LSZC 192350Z AUTO 26003KT CAVOK 18/14 Q1023=
METAR     LSZL 192320Z NIL=
METAR     LSZL 192350Z AUTO 09003KT 360V120 9999NDV SCT055 21/17
               Q1022 RMK=
METAR     LSZS 192320Z AUTO VRB02KT CAVOK 08/06 Q1029=
METAR     LSZS 192350Z AUTO 18003KT CAVOK 07/05 Q1029=
METAR     LSMA 192320Z NIL=
METAR     LSMA 192350Z AUTO VRB02KT 9999NDV NCD 17/14 Q1023 RMK=
METAR     LSMD 192320Z NIL=
METAR     LSMD 192350Z AUTO 00000KT 9999NDV NCD 15/12 Q1023 RMK=
METAR     LSME 192320Z NIL=
METAR     LSME 192350Z AUTO 00000KT 9999NDV NCD 16/13 Q1023 RMK=
METAR     LSMM 192320Z NIL=
METAR     LSMM 192350Z AUTO 11005KT 9999NDV NCD 15/12 Q1023 RMK=
METAR     LSMP 192320Z NIL=
METAR     LSMP 192350Z AUTO VRB01KT 9999NDV NCD 16/14 Q1022 RMK=
METAR     LSMS 192320Z AUTO VRB03KT CAVOK 21/13 Q1022=
METAR     LSMS 192350Z AUTO 00000KT CAVOK 20/14 Q1022=
Aktualisiert am Mittwoch, 20. Juni 2018, 02:03 Uhr

TAF Schweiz

TAF     LSZH 192025Z 1921/2103 VRB03KT CAVOK TX29/2015Z TN12/2004Z
             BECMG 2009/2012 06006KT BECMG 2019/2021 VRB03KT=
TAF     LSGG 192025Z 1921/2103 VRB03KT CAVOK TX30/2015Z TN15/2004Z
             BECMG 2007/2009 05007KT 9999 FEW040 BECMG 2018/2020
             VRB03KT CAVOK=
TAF     LFSB 191700Z 1918/2018 34005KT CAVOK=
TAF AAH LSGS 192002Z 1920/1924 CNL=
TAF     LSGS 191425Z 1915/1924 25012KT 9999 FEW070 BECMG 1918/1921
             VRB03KT CAVOK=
TAF AAF LSZA 191954Z 1919/1924 CNL=
TAF     LSZA 191425Z 1915/1924 19008KT 9999 FEW060 BECMG 1917/1919
             VRB03KT CAVOK=
TAF AAA LSZB 191954Z 1919/1924 CNL=
TAF     LSZB 191425Z 1915/1924 35008KT CAVOK=
TAF AAB LSZG 191954Z 1919/1924 CNL=
TAF     LSZG 191425Z 1915/1924 09008KT 9999 FEW050 BECMG 1917/1920
             CAVOK=
TAF     LSZL 191725Z 1918/2003 VRB03KT CAVOK TEMPO 1918/2003 9999
             FEW060=
TAF AAC LSZR 191954Z 1919/1924 CNL=
TAF     LSZR 191425Z 1915/1924 28008KT CAVOK=
TAF AAG LSGC 192001Z 1920/1924 CNL=
TAF     LSGC 191425Z 1915/1924 04007KT 9999 FEW040 BECMG 1918/1920
             CAVOK=
TAF AAE LSZC 191954Z 1919/1924 CNL=
TAF     LSZC 191425Z 1915/1924 VRB03KT 9999 FEW050 BECMG 1917/1920
             CAVOK=
TAF AAD LSZS 191954Z 1919/1924 CNL=
TAF     LSZS 191425Z 1915/1924 01008KT 9999 FEW080 TX21/1915Z BECMG
             1918/1921 VRB03KT CAVOK=
TAF     LSMA 191625Z 1917/2023 06010KT 9999 FEW050 BECMG 1917/1919
             VRB03KT BECMG 2008/2011 06012KT BECMG 2016/2019
             VRB03KT=
TAF     LSMD 191625Z 1917/2023 VRB03KT CAVOK TEMPO 1917/2023 9999
             FEW050=
TAF     LSME 191625Z 1917/2023 VRB03KT CAVOK TEMPO 1917/2023 9999
             FEW050=
TAF     LSMM 191625Z 1917/2023 07010KT 9999 FEW050 BECMG 1917/1919
             VRB03KT BECMG 2008/2011 27012KT BECMG 2016/2019
             VRB03KT=
TAF     LSMP 191625Z 1917/2023 06010KT CAVOK BECMG 1918/1920
             VRB03KT=
Aktualisiert am Mittwoch, 20. Juni 2018, 00:06 Uhr